createdAt,value
2019-01-14T00:03:33.811Z,99889.09
2019-01-14T00:07:39.204Z,99896.80
2019-01-14T00:11:44.322Z,99899.59
2019-01-14T00:15:49.372Z,99910.52
2019-01-14T00:19:54.793Z,99914.66
2019-01-14T00:24:00.056Z,99920.55
2019-01-14T00:28:05.383Z,99910.37
2019-01-14T00:32:10.537Z,99926.25
2019-01-14T00:36:17.533Z,99924.09
2019-01-14T00:40:22.383Z,99931.79
2019-01-14T00:44:27.581Z,99945.58
2019-01-14T00:48:32.754Z,99948.47
2019-01-14T00:52:37.838Z,99954.94
2019-01-14T00:56:42.964Z,99964.66
2019-01-14T01:00:48.351Z,99965.53
2019-01-14T01:04:53.420Z,99966.97
2019-01-14T01:08:58.543Z,99965.06
2019-01-14T01:13:03.989Z,99983.42
2019-01-14T01:17:09.351Z,99991.45
2019-01-14T01:21:14.458Z,99997.50
2019-01-14T01:25:19.526Z,100009.05
2019-01-14T01:29:24.595Z,100019.38
2019-01-14T01:33:29.645Z,100013.15
2019-01-14T01:37:34.674Z,100008.97
2019-01-14T01:41:39.721Z,100036.23
2019-01-14T01:45:44.843Z,100027.36
2019-01-14T01:49:50.544Z,100035.17
2019-01-14T01:53:55.576Z,100047.27
2019-01-14T01:58:00.636Z,100041.11
2019-01-14T02:02:05.783Z,100044.09
2019-01-14T02:06:10.857Z,100055.57
2019-01-14T02:10:22.960Z,100058.66
2019-01-14T02:14:28.172Z,100073.66
2019-01-14T02:18:33.312Z,100073.58
2019-01-14T02:22:38.331Z,100080.13
2019-01-14T02:26:44.435Z,100075.22
2019-01-14T02:30:49.590Z,100079.22
2019-01-14T02:34:54.730Z,100086.25
2019-01-14T02:38:59.791Z,100090.44
2019-01-14T02:43:05.091Z,100107.77
2019-01-14T02:47:10.154Z,100107.38
2019-01-14T02:51:15.781Z,100105.61
2019-01-14T02:55:21.162Z,100116.09
2019-01-14T02:59:26.261Z,100116.80
2019-01-14T03:03:31.365Z,100126.52
2019-01-14T03:07:36.902Z,100142.30
2019-01-14T03:11:42.250Z,100154.16
2019-01-14T03:15:47.315Z,100149.71
2019-01-14T03:19:52.336Z,100149.86
2019-01-14T03:23:57.393Z,100145.63
2019-01-14T03:28:02.449Z,100154.08
2019-01-14T03:32:07.520Z,100159.84
2019-01-14T03:36:12.670Z,100169.42
2019-01-14T03:40:18.379Z,100169.44
2019-01-14T03:44:23.890Z,100171.74
2019-01-14T03:48:28.947Z,100174.64
2019-01-14T03:52:33.987Z,100174.43
2019-01-14T03:56:39.021Z,100173.80
2019-01-14T04:00:44.045Z,100195.58
2019-01-14T04:04:49.351Z,100190.03
2019-01-14T04:08:54.603Z,100182.28
2019-01-14T04:12:59.663Z,100195.50
2019-01-14T04:17:04.694Z,100199.72
2019-01-14T04:21:09.754Z,100194.20
2019-01-14T04:25:15.012Z,100197.09
2019-01-14T04:29:20.112Z,100200.48
2019-01-14T04:33:25.168Z,100210.81
2019-01-14T04:37:30.352Z,100208.66
2019-01-14T04:41:35.768Z,100217.64
2019-01-14T04:45:41.848Z,100214.35
2019-01-14T04:49:46.936Z,100222.20
2019-01-14T04:53:51.984Z,100227.89
2019-01-14T04:57:57.029Z,100233.33
2019-01-14T05:02:02.189Z,100223.69
2019-01-14T05:06:07.208Z,100234.85
2019-01-14T05:10:12.919Z,100239.20
2019-01-14T05:14:17.960Z,100243.23
2019-01-14T05:18:23.110Z,100251.75
2019-01-14T05:22:28.174Z,100251.69
2019-01-14T05:26:33.165Z,100255.92
2019-01-14T05:30:38.269Z,100251.94
2019-01-14T05:34:43.304Z,100251.90
2019-01-14T05:38:48.356Z,100253.34
2019-01-14T05:42:53.382Z,100256.48
2019-01-14T05:46:58.421Z,100259.56
2019-01-14T05:51:03.499Z,100274.91
2019-01-14T05:55:08.919Z,100278.77
2019-01-14T05:59:14.011Z,100297.14
2019-01-14T06:03:19.239Z,100301.46
2019-01-14T06:07:24.302Z,100299.90
2019-01-14T06:11:29.330Z,100302.46
2019-01-14T06:15:34.613Z,100312.47
2019-01-14T06:19:39.796Z,100312.31
2019-01-14T06:23:44.924Z,100315.52
2019-01-14T06:27:50.033Z,100324.80
2019-01-14T06:31:55.090Z,100316.64
2019-01-14T06:36:00.263Z,100338.07
2019-01-14T06:40:07.403Z,100329.08
2019-01-14T06:44:12.470Z,100318.87
2019-01-14T06:48:17.484Z,100333.05
2019-01-14T06:52:22.581Z,100344.96
2019-01-14T06:56:27.625Z,100354.25
2019-01-14T07:00:32.737Z,100358.43
2019-01-14T07:04:38.010Z,100362.22
2019-01-14T07:08:43.069Z,100371.77
2019-01-14T07:12:48.134Z,100372.63
2019-01-14T07:16:53.247Z,100377.75
2019-01-14T07:20:58.261Z,100383.41
2019-01-14T07:25:03.852Z,100378.11
2019-01-14T07:29:08.867Z,100398.09
2019-01-14T07:33:13.904Z,100403.00
2019-01-14T07:37:18.917Z,100409.77
2019-01-14T07:41:24.769Z,100416.83
2019-01-14T07:45:30.126Z,100430.00
2019-01-14T07:49:35.142Z,100434.24
2019-01-14T07:53:40.230Z,100432.00
2019-01-14T07:57:45.505Z,100448.89
2019-01-14T08:01:50.539Z,100452.98
2019-01-14T08:05:55.594Z,100459.92
2019-01-14T08:10:00.719Z,100475.81
2019-01-14T08:14:07.290Z,100492.81
2019-01-14T08:18:12.338Z,100489.33
2019-01-14T08:22:17.352Z,100493.91
2019-01-14T08:26:22.357Z,100494.97
2019-01-14T08:30:27.374Z,100513.06
2019-01-14T08:34:32.377Z,100516.85
2019-01-14T08:38:37.397Z,100522.57
2019-01-14T08:42:42.562Z,100540.70
2019-01-14T08:46:47.588Z,100543.89
2019-01-14T08:50:52.625Z,100594.45
2019-01-14T08:54:57.559Z,100610.09
2019-01-14T08:59:02.570Z,100624.42
2019-01-14T09:03:07.608Z,100622.87
2019-01-14T09:07:13.634Z,100623.92
2019-01-14T09:11:18.755Z,100621.73
2019-01-14T09:15:23.797Z,100617.92
2019-01-14T09:19:29.534Z,100617.35
2019-01-14T09:23:34.791Z,100622.60
2019-01-14T09:27:39.864Z,100626.72
2019-01-14T09:31:45.015Z,100627.49
2019-01-14T09:35:49.999Z,100633.28
2019-01-14T09:39:55.020Z,100644.42
2019-01-14T09:44:00.040Z,100657.62
2019-01-14T09:48:05.067Z,100658.89
2019-01-14T09:52:10.212Z,100666.56
2019-01-14T09:56:15.221Z,100670.03
2019-01-14T10:00:20.333Z,100673.39
2019-01-14T10:04:25.486Z,100672.08
2019-01-14T10:08:31.577Z,100683.59
2019-01-14T10:12:36.479Z,100686.88
2019-01-14T10:16:43.055Z,100693.03
2019-01-14T10:20:48.008Z,100698.20
2019-01-14T10:24:53.045Z,100692.95
2019-01-14T10:28:58.074Z,100698.27
2019-01-14T10:33:03.108Z,100705.68
2019-01-14T10:37:08.342Z,100714.13
2019-01-14T10:41:13.395Z,100711.59
2019-01-14T10:45:22.730Z,100723.23
2019-01-14T10:49:28.806Z,100725.41
2019-01-14T10:53:33.926Z,100734.57
2019-01-14T10:57:39.018Z,100727.86
2019-01-14T11:01:44.038Z,100729.75
2019-01-14T11:05:49.056Z,100741.36
2019-01-14T11:09:54.102Z,100739.13
2019-01-14T11:13:59.145Z,100743.70
2019-01-14T11:18:04.128Z,100756.47
2019-01-14T11:22:10.218Z,100749.81
2019-01-14T11:26:15.251Z,100775.27
2019-01-14T11:30:28.941Z,100775.44
2019-01-14T11:34:33.914Z,100773.55
2019-01-14T11:38:47.391Z,100776.81
2019-01-14T11:42:52.486Z,100782.15
2019-01-14T11:46:58.665Z,100779.98
2019-01-14T11:51:03.977Z,100783.58
2019-01-14T11:55:09.235Z,100792.67
2019-01-14T11:59:14.346Z,100781.03
2019-01-14T12:03:19.381Z,100797.73
2019-01-14T12:07:24.419Z,100790.42
2019-01-14T12:11:29.278Z,100795.59
2019-01-14T12:15:34.326Z,100788.25
2019-01-14T12:19:39.271Z,100798.24
2019-01-14T12:23:44.327Z,100804.45
2019-01-14T12:27:49.411Z,100801.06
2019-01-14T12:31:54.429Z,100808.55
2019-01-14T12:35:59.455Z,100818.38
2019-01-14T12:40:05.234Z,100808.92
2019-01-14T12:44:10.306Z,100835.02
2019-01-14T12:48:15.317Z,100836.88
2019-01-14T12:52:20.358Z,100839.63
2019-01-14T12:56:25.401Z,100841.67
2019-01-14T13:00:30.926Z,100837.02
2019-01-14T13:04:36.222Z,100843.80
2019-01-14T13:08:41.267Z,100854.45
2019-01-14T13:12:46.330Z,100845.72
2019-01-14T13:16:52.415Z,100853.22
2019-01-14T13:20:57.464Z,100856.21
2019-01-14T13:25:02.654Z,100856.76
2019-01-14T13:29:08.334Z,100864.52
2019-01-14T13:33:13.369Z,100870.25
2019-01-14T13:37:19.014Z,100877.80
2019-01-14T13:41:24.010Z,100868.75
2019-01-14T13:45:28.980Z,100871.19
2019-01-14T13:49:33.958Z,100880.32
2019-01-14T13:53:39.220Z,100884.46
2019-01-14T13:57:44.174Z,100897.75
2019-01-14T14:01:49.123Z,100906.70
2019-01-14T14:05:54.235Z,100921.17
2019-01-14T14:09:59.293Z,100923.32
2019-01-14T14:14:04.597Z,100927.55
2019-01-14T14:18:09.623Z,100933.81
2019-01-14T14:22:14.578Z,100949.02
2019-01-14T14:26:19.730Z,100951.32
2019-01-14T14:30:27.688Z,100948.21
2019-01-14T14:34:32.613Z,100968.77
2019-01-14T14:38:37.491Z,100970.20
2019-01-14T14:42:42.793Z,100980.84
2019-01-14T14:46:48.308Z,100994.30
2019-01-14T14:50:53.571Z,100991.34
2019-01-14T14:54:58.700Z,101009.94
2019-01-14T14:59:03.719Z,101015.47
2019-01-14T15:03:08.746Z,101027.05
2019-01-14T15:07:14.015Z,101016.34
2019-01-14T15:11:19.046Z,101015.76
2019-01-14T15:15:24.754Z,101019.81
2019-01-14T15:19:29.875Z,101030.34
2019-01-14T15:23:34.886Z,101048.95
2019-01-14T15:27:39.894Z,101045.86
2019-01-14T15:31:44.978Z,101050.16
2019-01-14T15:35:49.896Z,101061.55
2019-01-14T15:39:54.839Z,101067.34
2019-01-14T15:44:00.837Z,101072.37
2019-01-14T15:48:05.800Z,101083.89
2019-01-14T15:52:10.809Z,101097.63
2019-01-14T15:56:15.792Z,101099.72
2019-01-14T16:00:21.154Z,101109.85
2019-01-14T16:04:26.167Z,101115.78
2019-01-14T16:08:31.134Z,101117.72
2019-01-14T16:12:36.247Z,101130.79
2019-01-14T16:16:41.292Z,101133.36
2019-01-14T16:20:46.226Z,101131.97
2019-01-14T16:24:52.261Z,101136.73
2019-01-14T16:28:57.307Z,101151.92
2019-01-14T16:33:02.359Z,101138.45
2019-01-14T16:37:07.413Z,101150.09
2019-01-14T16:41:12.436Z,101155.30
2019-01-14T16:45:23.252Z,101158.77
2019-01-14T16:49:28.320Z,101165.15
2019-01-14T16:53:33.361Z,101162.48
2019-01-14T16:57:38.430Z,101165.27
2019-01-14T17:01:43.456Z,101178.07
2019-01-14T17:05:48.534Z,101182.50
2019-01-14T17:09:53.667Z,101175.84
2019-01-14T17:13:58.748Z,101174.73
2019-01-14T17:18:04.148Z,101174.16
2019-01-14T17:22:09.218Z,101172.36
2019-01-14T17:26:14.331Z,101179.23
2019-01-14T17:30:19.384Z,101182.06
2019-01-14T17:34:24.521Z,101189.94
2019-01-14T17:38:29.620Z,101197.41
2019-01-14T17:42:34.708Z,101195.48
2019-01-14T17:46:39.729Z,101201.64
2019-01-14T17:50:44.774Z,101205.94
2019-01-14T17:54:49.864Z,101209.24
2019-01-14T17:58:54.955Z,101221.19
2019-01-14T18:03:00.364Z,101220.42
2019-01-14T18:07:05.436Z,101222.20
2019-01-14T18:11:10.492Z,101229.84
2019-01-14T18:15:15.723Z,101233.56
2019-01-14T18:19:20.812Z,101248.77
2019-01-14T18:23:26.440Z,101252.20
2019-01-14T18:27:31.428Z,101256.45
2019-01-14T18:31:36.510Z,101272.64
2019-01-14T18:35:41.574Z,101274.27
2019-01-14T18:39:46.619Z,101270.52
2019-01-14T18:43:51.732Z,101278.50
2019-01-14T18:47:56.840Z,101279.45
2019-01-14T18:52:01.880Z,101285.34
2019-01-14T18:56:07.066Z,101278.63
2019-01-14T19:00:19.905Z,101272.91
2019-01-14T19:04:24.919Z,101286.02
2019-01-14T19:08:30.983Z,101302.55
2019-01-14T19:12:37.071Z,101313.08
2019-01-14T19:16:42.135Z,101313.08
2019-01-14T19:20:47.233Z,101325.50
2019-01-14T19:24:53.177Z,101324.75
2019-01-14T19:28:58.167Z,101315.69
2019-01-14T19:33:03.250Z,101325.67
2019-01-14T19:37:08.797Z,101326.09
2019-01-14T19:41:13.907Z,101337.29
2019-01-14T19:45:20.470Z,101337.02
2019-01-14T19:49:25.629Z,101342.45
2019-01-14T19:53:30.657Z,101344.25
2019-01-14T19:57:35.693Z,101344.70
2019-01-14T20:01:40.861Z,101338.03
2019-01-14T20:05:47.660Z,101337.59
2019-01-14T20:09:53.456Z,101341.12
2019-01-14T20:13:58.626Z,101356.55
2019-01-14T20:18:03.727Z,101348.50
2019-01-14T20:22:08.821Z,101356.11
2019-01-14T20:26:13.839Z,101363.23
2019-01-14T20:30:20.667Z,101366.89
2019-01-14T20:34:25.694Z,101372.59
2019-01-14T20:38:32.159Z,101373.55
2019-01-14T20:42:37.307Z,101384.41
2019-01-14T20:46:42.370Z,101373.27
2019-01-14T20:50:49.793Z,101372.51
2019-01-14T20:54:57.516Z,101369.05
2019-01-14T20:59:02.535Z,101374.44
2019-01-14T21:03:07.683Z,101366.20
2019-01-14T21:07:12.749Z,101366.97
2019-01-14T21:11:23.769Z,101378.69
2019-01-14T21:15:25.591Z,101380.08
2019-01-14T21:19:30.588Z,101376.65
2019-01-14T21:23:35.647Z,101383.58
2019-01-14T21:27:40.784Z,101378.63
2019-01-14T21:31:46.213Z,101375.81
2019-01-14T21:35:51.197Z,101373.97
2019-01-14T21:39:56.251Z,101371.38
2019-01-14T21:44:01.407Z,101363.13
2019-01-14T21:48:06.451Z,101361.34
2019-01-14T21:52:11.488Z,101357.94
2019-01-14T21:56:16.621Z,101366.19
2019-01-14T22:00:22.905Z,101378.43
2019-01-14T22:04:27.937Z,101381.53
2019-01-14T22:08:33.095Z,101378.16
2019-01-14T22:12:38.150Z,101386.05
2019-01-14T22:16:43.285Z,101379.20
2019-01-14T22:20:48.202Z,101381.75
2019-01-14T22:24:53.210Z,101390.41
2019-01-14T22:28:58.310Z,101390.87
2019-01-14T22:33:03.651Z,101389.53
2019-01-14T22:37:08.726Z,101396.15
2019-01-14T22:41:13.781Z,101385.61
2019-01-14T22:45:19.204Z,101398.66
2019-01-14T22:49:24.168Z,101404.26
2019-01-14T22:53:29.220Z,101399.83
2019-01-14T22:57:34.168Z,101399.50
2019-01-14T23:01:44.274Z,101405.05
2019-01-14T23:05:50.364Z,101399.48
2019-01-14T23:09:55.422Z,101399.58
2019-01-14T23:14:00.389Z,101399.56
2019-01-14T23:18:05.494Z,101402.56
2019-01-14T23:22:10.625Z,101397.86
2019-01-14T23:26:15.598Z,101408.20
2019-01-14T23:30:21.630Z,101398.73
2019-01-14T23:34:26.652Z,101404.78
2019-01-14T23:38:31.830Z,101399.19
2019-01-14T23:42:39.853Z,101407.42
2019-01-14T23:46:44.919Z,101413.88
2019-01-14T23:50:50.236Z,101406.09
2019-01-14T23:54:55.359Z,101404.36
2019-01-14T23:59:00.414Z,101398.77
